createdAt,value
2023-03-05T00:01:24.485Z,3.60
2023-03-05T00:03:55.839Z,4.23
2023-03-05T00:06:25.568Z,4.60
2023-03-05T00:08:55.141Z,5.20
2023-03-05T00:11:24.378Z,4.33
2023-03-05T00:13:53.710Z,5.07
2023-03-05T00:16:22.850Z,5.53
2023-03-05T00:18:51.433Z,4.60
2023-03-05T00:21:25.974Z,3.50
2023-03-05T00:23:54.778Z,5.03
2023-03-05T00:26:25.925Z,4.40
2023-03-05T00:28:55.422Z,4.87
2023-03-05T00:31:25.693Z,3.80
2023-03-05T00:33:54.335Z,3.93
2023-03-05T00:36:24.585Z,4.17
2023-03-05T00:38:53.056Z,5.50
2023-03-05T00:41:21.666Z,6.03
2023-03-05T00:43:50.256Z,4.10
2023-03-05T00:46:18.666Z,3.87
2023-03-05T00:48:47.276Z,4.00
2023-03-05T00:51:15.735Z,3.97
2023-03-05T00:53:45.509Z,4.00
2023-03-05T00:56:13.784Z,3.57
2023-03-05T00:58:42.192Z,3.80
2023-03-05T01:01:10.712Z,3.97
2023-03-05T01:03:39.036Z,3.63
2023-03-05T01:06:09.634Z,3.47
2023-03-05T01:08:38.342Z,4.37
2023-03-05T01:11:09.038Z,4.07
2023-03-05T01:13:37.928Z,4.17
2023-03-05T01:16:06.840Z,5.20
2023-03-05T01:18:35.680Z,3.37
2023-03-05T01:21:05.549Z,4.33
2023-03-05T01:23:34.595Z,3.90
2023-03-05T01:26:02.906Z,5.80
2023-03-05T01:28:32.726Z,3.80
2023-03-05T01:31:01.032Z,5.73
2023-03-05T01:33:29.284Z,3.83
2023-03-05T01:35:57.665Z,4.33
2023-03-05T01:38:26.008Z,4.03
2023-03-05T01:40:54.328Z,4.10
2023-03-05T01:43:28.056Z,3.63
2023-03-05T01:46:26.493Z,4.03
2023-03-05T01:48:59.703Z,4.70
2023-03-05T01:51:31.669Z,4.97
2023-03-05T01:54:01.539Z,5.00
2023-03-05T01:56:31.807Z,6.70
2023-03-05T01:59:03.706Z,3.97
2023-03-05T02:01:41.375Z,2.97
2023-03-05T02:04:11.306Z,4.20
2023-03-05T02:06:40.856Z,4.13
2023-03-05T02:09:09.156Z,4.40
2023-03-05T02:11:37.864Z,4.97
2023-03-05T02:14:09.907Z,3.57
2023-03-05T02:16:40.557Z,5.67
2023-03-05T02:19:11.742Z,4.53
2023-03-05T02:21:43.919Z,4.03
2023-03-05T02:24:14.462Z,4.50
2023-03-05T02:26:44.832Z,4.63
2023-03-05T02:29:18.595Z,5.27
2023-03-05T02:31:47.260Z,5.17
2023-03-05T02:34:15.828Z,4.10
2023-03-05T02:36:45.600Z,4.53
2023-03-05T02:39:14.196Z,5.70
2023-03-05T02:41:42.492Z,4.20
2023-03-05T02:44:11.046Z,7.00
2023-03-05T02:46:39.312Z,5.50
2023-03-05T02:49:07.580Z,5.47
2023-03-05T02:51:36.106Z,6.60
2023-03-05T02:54:05.995Z,4.97
2023-03-05T02:56:34.330Z,5.80
2023-03-05T02:59:02.833Z,3.27
2023-03-05T03:01:31.127Z,4.33
2023-03-05T03:03:59.409Z,3.70
2023-03-05T03:06:27.758Z,4.70
2023-03-05T03:08:56.208Z,4.00
2023-03-05T03:11:25.928Z,4.33
2023-03-05T03:13:54.292Z,3.63
2023-03-05T03:16:22.688Z,3.77
2023-03-05T03:18:50.955Z,3.87
2023-03-05T03:21:21.337Z,4.07
2023-03-05T03:23:49.600Z,5.57
2023-03-05T03:26:18.554Z,3.90
2023-03-05T03:28:48.308Z,6.07
2023-03-05T03:31:16.894Z,5.87
2023-03-05T03:33:46.491Z,3.83
2023-03-05T03:36:15.059Z,5.23
2023-03-05T03:38:43.499Z,3.93
2023-03-05T03:41:11.842Z,3.63
2023-03-05T03:43:40.189Z,4.37
2023-03-05T03:46:10.042Z,4.53
2023-03-05T03:48:38.369Z,4.57
2023-03-05T03:51:08.377Z,5.43
2023-03-05T03:53:36.680Z,3.90
2023-03-05T03:56:05.674Z,5.10
2023-03-05T03:58:34.374Z,3.40
2023-03-05T04:01:02.715Z,6.37
2023-03-05T04:03:32.400Z,3.83
2023-03-05T04:06:00.699Z,3.70
2023-03-05T04:08:29.007Z,5.10
2023-03-05T04:10:57.412Z,4.50
2023-03-05T04:13:25.719Z,5.07
2023-03-05T04:15:54.496Z,6.90
2023-03-05T04:18:23.210Z,4.47
2023-03-05T04:20:53.038Z,3.80
2023-03-05T04:23:21.359Z,3.63
2023-03-05T04:25:49.870Z,6.33
2023-03-05T04:28:18.920Z,4.97
2023-03-05T04:30:47.301Z,4.20
2023-03-05T04:33:15.917Z,4.17
2023-03-05T04:35:44.349Z,5.17
2023-03-05T04:38:14.796Z,5.50
2023-03-05T04:40:43.266Z,4.97
2023-03-05T04:43:11.601Z,4.20
2023-03-05T04:45:41.523Z,6.33
2023-03-05T04:48:10.924Z,5.10
2023-03-05T04:50:39.286Z,6.33
2023-03-05T04:53:07.871Z,5.00
2023-03-05T04:55:37.602Z,5.53
2023-03-05T04:58:05.863Z,6.03
2023-03-05T05:00:34.337Z,5.30
2023-03-05T05:03:03.071Z,6.97
2023-03-05T05:05:31.634Z,6.63
2023-03-05T05:08:00.212Z,8.57
2023-03-05T05:10:29.287Z,5.53
2023-03-05T05:12:59.124Z,6.63
2023-03-05T05:15:27.546Z,5.80
2023-03-05T05:17:55.894Z,5.80
2023-03-05T05:20:24.237Z,7.70
2023-03-05T05:22:52.490Z,5.67
2023-03-05T05:25:21.093Z,6.67
2023-03-05T05:27:49.497Z,6.40
2023-03-05T05:30:19.789Z,8.40
2023-03-05T05:32:48.073Z,6.90
2023-03-05T05:35:16.917Z,104.53
2023-03-05T05:37:45.283Z,351.00
2023-03-05T05:40:14.338Z,650.67
2023-03-05T05:42:42.698Z,732.57
2023-03-05T05:45:12.150Z,584.03
2023-03-05T05:47:41.902Z,294.47
2023-03-05T05:50:12.162Z,144.20
2023-03-05T05:52:40.573Z,129.77
2023-03-05T05:55:09.835Z,202.73
2023-03-05T05:57:38.177Z,282.27
2023-03-05T06:00:09.090Z,375.63
2023-03-05T06:02:41.071Z,252.20
2023-03-05T06:05:12.614Z,122.70
2023-03-05T06:07:40.909Z,80.23
2023-03-05T06:10:10.779Z,78.77
2023-03-05T06:12:39.030Z,120.73
2023-03-05T06:15:08.637Z,214.00
2023-03-05T06:17:37.108Z,219.30
2023-03-05T06:20:08.602Z,146.70
2023-03-05T06:22:37.892Z,108.53
2023-03-05T06:25:07.481Z,132.33
2023-03-05T06:27:37.166Z,216.53
2023-03-05T06:30:07.185Z,427.63
2023-03-05T06:32:35.781Z,453.97
2023-03-05T06:35:04.542Z,381.83
2023-03-05T06:37:35.490Z,301.77
2023-03-05T06:40:05.644Z,409.70
2023-03-05T06:42:35.138Z,394.60
2023-03-05T06:45:03.993Z,293.30
2023-03-05T06:47:32.640Z,227.73
2023-03-05T06:50:00.952Z,137.93
2023-03-05T06:52:29.239Z,101.53
2023-03-05T06:54:58.921Z,116.00
2023-03-05T06:57:27.301Z,201.70
2023-03-05T06:59:55.859Z,240.23
2023-03-05T07:02:24.248Z,189.17
2023-03-05T07:04:52.599Z,141.77
2023-03-05T07:07:20.876Z,93.23
2023-03-05T07:09:50.391Z,118.83
2023-03-05T07:12:20.094Z,282.93
2023-03-05T07:14:48.360Z,197.00
2023-03-05T07:17:16.728Z,137.90
2023-03-05T07:19:45.086Z,148.10
2023-03-05T07:22:13.579Z,147.70
2023-03-05T07:24:41.834Z,129.03
2023-03-05T07:27:10.164Z,109.93
2023-03-05T07:29:40.108Z,107.03
2023-03-05T07:32:08.752Z,97.07
2023-03-05T07:34:38.827Z,87.17
2023-03-05T07:37:07.414Z,83.53
2023-03-05T07:39:35.822Z,68.27
2023-03-05T07:42:04.254Z,53.40
2023-03-05T07:44:33.079Z,50.43
2023-03-05T07:47:02.821Z,86.50
2023-03-05T07:49:31.140Z,81.30
2023-03-05T07:51:59.377Z,69.27
2023-03-05T07:54:27.936Z,70.43
2023-03-05T07:56:56.342Z,64.90
2023-03-05T07:59:24.717Z,81.53
2023-03-05T08:01:53.036Z,68.33
2023-03-05T08:04:22.826Z,51.53
2023-03-05T08:06:51.225Z,38.63
2023-03-05T08:09:20.313Z,27.57
2023-03-05T08:11:48.547Z,23.00
2023-03-05T08:14:17.561Z,26.37
2023-03-05T08:16:48.316Z,20.67
2023-03-05T08:19:16.760Z,20.57
2023-03-05T08:21:47.466Z,20.03
2023-03-05T08:24:16.212Z,18.33
2023-03-05T08:26:44.504Z,18.80
2023-03-05T08:29:12.863Z,23.17
2023-03-05T08:31:41.369Z,22.87
2023-03-05T08:34:09.764Z,32.17
2023-03-05T08:36:38.093Z,33.87
2023-03-05T08:39:08.626Z,31.87
2023-03-05T08:41:37.671Z,29.97
2023-03-05T08:44:06.369Z,31.60
2023-03-05T08:46:34.877Z,29.87
2023-03-05T08:49:03.258Z,27.50
2023-03-05T08:51:31.612Z,23.60
2023-03-05T08:54:00.620Z,22.63
2023-03-05T08:56:31.542Z,22.27
2023-03-05T08:59:00.028Z,20.90
2023-03-05T09:01:28.474Z,20.20
2023-03-05T09:03:56.849Z,19.47
2023-03-05T09:06:25.301Z,16.43
2023-03-05T09:08:53.835Z,14.07
2023-03-05T09:11:23.297Z,15.77
2023-03-05T09:13:53.068Z,13.40
2023-03-05T09:16:22.830Z,14.00
2023-03-05T09:18:51.273Z,15.73
2023-03-05T09:21:19.874Z,15.03
2023-03-05T09:23:48.374Z,14.40
2023-03-05T09:26:19.434Z,12.90
2023-03-05T09:28:48.319Z,13.87
2023-03-05T09:31:18.199Z,12.17
2023-03-05T09:33:46.871Z,12.27
2023-03-05T09:36:21.370Z,12.47
2023-03-05T09:38:49.775Z,13.60
2023-03-05T09:41:26.558Z,12.30
2023-03-05T09:44:03.229Z,12.30
2023-03-05T09:46:45.530Z,15.07
2023-03-05T09:49:21.067Z,16.30
2023-03-05T09:51:55.854Z,17.27
2023-03-05T09:54:31.242Z,17.00
2023-03-05T09:57:04.924Z,17.53
2023-03-05T09:59:38.111Z,14.47
2023-03-05T10:02:17.783Z,14.97
2023-03-05T10:04:50.190Z,13.57
2023-03-05T10:07:22.386Z,14.33
2023-03-05T10:09:56.218Z,14.50
2023-03-05T10:12:31.396Z,12.80
2023-03-05T10:15:03.174Z,12.20
2023-03-05T10:17:51.968Z,10.33
2023-03-05T10:20:59.090Z,12.27
2023-03-05T10:23:31.995Z,9.93
2023-03-05T10:26:18.585Z,11.48
2023-03-05T10:28:56.102Z,12.43
2023-03-05T10:31:42.665Z,9.93
2023-03-05T10:34:27.969Z,9.60
2023-03-05T10:37:18.026Z,8.65
2023-03-05T10:40:09.896Z,9.95
2023-03-05T10:42:48.346Z,10.40
2023-03-05T10:45:20.181Z,11.73
2023-03-05T10:47:53.551Z,12.73
2023-03-05T10:50:27.006Z,10.88
2023-03-05T10:53:14.046Z,11.90
2023-03-05T10:55:42.893Z,11.05
2023-03-05T10:58:14.073Z,10.60
2023-03-05T11:00:58.646Z,11.85
2023-03-05T11:03:27.429Z,7.82
2023-03-05T11:06:03.555Z,12.55
2023-03-05T11:08:33.583Z,9.98
2023-03-05T11:11:18.417Z,10.15
2023-03-05T11:13:55.038Z,10.63
2023-03-05T11:16:25.719Z,11.10
2023-03-05T11:19:26.942Z,11.20
2023-03-05T11:22:14.402Z,14.05
2023-03-05T11:24:44.095Z,16.45
2023-03-05T11:27:35.697Z,13.52
2023-03-05T11:30:05.457Z,11.45
2023-03-05T11:32:33.868Z,10.75
2023-03-05T11:35:02.977Z,10.40
2023-03-05T11:37:33.521Z,12.25
2023-03-05T11:40:21.399Z,10.48
2023-03-05T11:42:56.704Z,10.00
2023-03-05T11:45:27.500Z,11.57
2023-03-05T11:48:00.102Z,11.40
2023-03-05T11:50:30.695Z,12.25
2023-03-05T11:53:04.655Z,10.60
2023-03-05T11:55:38.973Z,11.38
2023-03-05T11:58:29.362Z,11.93
2023-03-05T12:00:58.040Z,15.98
2023-03-05T12:03:32.014Z,12.65
2023-03-05T12:06:08.356Z,13.07
2023-03-05T12:08:42.832Z,10.82
2023-03-05T12:11:18.222Z,10.65
2023-03-05T12:13:50.112Z,11.13
2023-03-05T12:16:30.216Z,18.50
2023-03-05T12:19:06.812Z,11.63
2023-03-05T12:21:37.856Z,10.73
2023-03-05T12:24:38.478Z,10.95
2023-03-05T12:27:16.192Z,13.65
2023-03-05T12:29:47.322Z,17.90
2023-03-05T12:33:02.353Z,12.30
2023-03-05T12:35:39.641Z,11.18
2023-03-05T12:38:31.262Z,15.88
2023-03-05T12:41:35.838Z,17.30
2023-03-05T12:44:24.049Z,12.63
2023-03-05T12:47:20.176Z,14.68
2023-03-05T12:49:49.874Z,10.35
2023-03-05T12:52:30.899Z,11.93
2023-03-05T12:55:08.807Z,14.82
2023-03-05T12:57:38.914Z,11.55
2023-03-05T13:00:13.244Z,10.95
2023-03-05T13:02:44.454Z,11.02
2023-03-05T13:05:22.723Z,12.05
2023-03-05T13:07:51.492Z,9.15
2023-03-05T13:10:25.637Z,11.05
2023-03-05T13:12:58.613Z,12.15
2023-03-05T13:15:27.921Z,10.88
2023-03-05T13:17:58.423Z,27.63
2023-03-05T13:20:37.799Z,10.13
2023-03-05T13:23:23.619Z,13.57
2023-03-05T13:26:00.588Z,11.20
2023-03-05T13:28:30.821Z,10.57
2023-03-05T13:31:01.017Z,13.57
2023-03-05T13:33:31.344Z,12.32
2023-03-05T13:36:00.444Z,12.30
2023-03-05T13:38:33.931Z,16.23
2023-03-05T13:41:07.223Z,13.65
2023-03-05T13:43:44.709Z,11.15
2023-03-05T13:46:13.266Z,11.60
2023-03-05T13:48:41.721Z,16.35
2023-03-05T13:51:12.064Z,13.70
2023-03-05T13:53:40.563Z,11.13
2023-03-05T13:56:14.692Z,10.88
2023-03-05T13:58:52.380Z,12.50
2023-03-05T14:01:30.080Z,12.70
2023-03-05T14:04:00.834Z,10.43
2023-03-05T14:06:31.096Z,14.73
2023-03-05T14:09:07.517Z,10.52
2023-03-05T14:11:36.980Z,22.85
2023-03-05T14:14:17.896Z,12.70
2023-03-05T14:16:46.269Z,16.30
2023-03-05T14:19:36.766Z,10.52
2023-03-05T14:22:06.608Z,11.38
2023-03-05T14:24:35.103Z,13.15
2023-03-05T14:27:08.677Z,12.32
2023-03-05T14:29:39.252Z,10.52
2023-03-05T14:32:09.721Z,13.85
2023-03-05T14:34:40.782Z,12.73
2023-03-05T14:37:19.556Z,12.55
2023-03-05T14:39:54.311Z,14.77
2023-03-05T14:42:30.183Z,19.58
2023-03-05T14:45:01.899Z,18.33
2023-03-05T14:47:31.043Z,13.02
2023-03-05T14:49:59.743Z,13.50
2023-03-05T14:52:28.411Z,11.65
2023-03-05T14:54:57.077Z,14.18
2023-03-05T14:57:28.882Z,13.45
2023-03-05T14:59:57.559Z,19.08
2023-03-05T15:02:28.434Z,15.07
2023-03-05T15:04:56.840Z,16.35
2023-03-05T15:07:30.398Z,17.48
2023-03-05T15:10:00.186Z,17.55
2023-03-05T15:12:28.958Z,17.08
2023-03-05T15:14:57.962Z,16.55
2023-03-05T15:17:34.762Z,13.55
2023-03-05T15:20:07.131Z,18.58
2023-03-05T15:22:35.863Z,17.80
2023-03-05T15:25:05.425Z,17.60
2023-03-05T15:27:33.944Z,17.55
2023-03-05T15:30:02.734Z,34.88
2023-03-05T15:32:32.597Z,29.92
2023-03-05T15:35:01.842Z,24.30
2023-03-05T15:37:30.652Z,21.95
2023-03-05T15:39:59.158Z,24.65
2023-03-05T15:42:27.773Z,22.00
2023-03-05T15:44:56.189Z,20.75
2023-03-05T15:47:24.673Z,19.05
2023-03-05T15:49:54.521Z,20.50
2023-03-05T15:52:23.093Z,15.43
2023-03-05T15:54:51.548Z,23.65
2023-03-05T15:57:22.957Z,15.77
2023-03-05T15:59:51.718Z,17.33
2023-03-05T16:02:20.164Z,20.58
2023-03-05T16:04:48.554Z,22.15
2023-03-05T16:07:18.733Z,21.20
2023-03-05T16:09:50.719Z,16.42
2023-03-05T16:12:22.837Z,18.58
2023-03-05T16:14:52.245Z,17.58
2023-03-05T16:17:21.981Z,17.50
2023-03-05T16:19:54.202Z,21.52
2023-03-05T16:22:25.079Z,22.98
2023-03-05T16:24:53.363Z,23.85
2023-03-05T16:27:21.855Z,17.65
2023-03-05T16:29:51.208Z,24.55
2023-03-05T16:32:20.005Z,22.73
2023-03-05T16:34:49.442Z,22.95
2023-03-05T16:37:21.570Z,22.60
2023-03-05T16:39:52.352Z,27.30
2023-03-05T16:42:20.860Z,27.20
2023-03-05T16:44:49.966Z,24.97
2023-03-05T16:47:18.540Z,23.57
2023-03-05T16:49:46.945Z,25.73
2023-03-05T16:52:19.001Z,24.67
2023-03-05T16:54:48.313Z,24.50
2023-03-05T16:57:18.562Z,28.23
2023-03-05T16:59:46.971Z,22.53
2023-03-05T17:02:15.927Z,23.63
2023-03-05T17:04:44.721Z,25.23
2023-03-05T17:07:13.423Z,24.77
2023-03-05T17:09:42.155Z,23.50
2023-03-05T17:12:10.562Z,22.97
2023-03-05T17:14:40.294Z,25.60
2023-03-05T17:17:08.753Z,24.83
2023-03-05T17:19:37.187Z,25.73
2023-03-05T17:22:06.188Z,37.37
2023-03-05T17:24:34.531Z,29.03
2023-03-05T17:27:02.943Z,23.47
2023-03-05T17:29:31.625Z,27.70
2023-03-05T17:32:01.479Z,23.33
2023-03-05T17:34:37.063Z,24.33
2023-03-05T17:37:06.036Z,25.57
2023-03-05T17:39:34.671Z,23.40
2023-03-05T17:42:03.410Z,21.03
2023-03-05T17:44:32.365Z,22.63
2023-03-05T17:47:02.407Z,23.63
2023-03-05T17:49:30.770Z,26.87
2023-03-05T17:51:59.234Z,21.30
2023-03-05T17:54:27.578Z,26.83
2023-03-05T17:56:56.608Z,23.13
2023-03-05T17:59:25.512Z,22.53
2023-03-05T18:01:54.109Z,26.97
2023-03-05T18:04:23.846Z,28.30
2023-03-05T18:06:52.283Z,30.97
2023-03-05T18:09:20.898Z,30.93
2023-03-05T18:11:49.321Z,29.07
2023-03-05T18:14:18.798Z,28.33
2023-03-05T18:16:47.496Z,33.73
2023-03-05T18:19:16.149Z,37.97
2023-03-05T18:21:46.049Z,38.77
2023-03-05T18:24:15.593Z,37.23
2023-03-05T18:26:46.348Z,30.90
2023-03-05T18:29:16.123Z,31.17
2023-03-05T18:31:45.494Z,29.77
2023-03-05T18:34:14.352Z,33.37
2023-03-05T18:36:42.869Z,30.77
2023-03-05T18:39:13.558Z,30.80
2023-03-05T18:41:43.143Z,26.33
2023-03-05T18:44:11.499Z,27.87
2023-03-05T18:46:39.871Z,25.53
2023-03-05T18:49:09.419Z,26.03
2023-03-05T18:51:38.491Z,26.77
2023-03-05T18:54:07.012Z,26.07
2023-03-05T18:56:37.033Z,26.93
2023-03-05T18:59:05.383Z,27.03
2023-03-05T19:01:33.918Z,24.63
2023-03-05T19:04:02.454Z,24.30
2023-03-05T19:06:30.963Z,24.60
2023-03-05T19:09:52.419Z,29.43
2023-03-05T19:12:24.102Z,34.20
2023-03-05T19:14:52.413Z,33.63
2023-03-05T19:17:20.774Z,31.80
2023-03-05T19:19:53.075Z,33.00
2023-03-05T19:22:22.494Z,34.67
2023-03-05T19:24:51.113Z,33.77
2023-03-05T19:27:20.021Z,28.97
2023-03-05T19:29:50.088Z,28.87
2023-03-05T19:32:21.173Z,27.37
2023-03-05T19:34:50.197Z,24.73
2023-03-05T19:37:19.401Z,24.13
2023-03-05T19:39:48.169Z,24.17
2023-03-05T19:42:16.874Z,28.83
2023-03-05T19:44:45.396Z,29.17
2023-03-05T19:47:15.306Z,31.47
2023-03-05T19:49:44.064Z,24.10
2023-03-05T19:52:14.139Z,25.63
2023-03-05T19:54:42.993Z,28.23
2023-03-05T19:57:11.408Z,25.97
2023-03-05T19:59:40.204Z,25.93
2023-03-05T20:02:08.975Z,22.53
2023-03-05T20:04:38.746Z,26.20
2023-03-05T20:07:07.283Z,30.57
2023-03-05T20:09:35.744Z,29.00
2023-03-05T20:12:05.734Z,31.30
2023-03-05T20:14:34.365Z,28.33
2023-03-05T20:17:03.246Z,26.10
2023-03-05T20:19:31.993Z,24.17
2023-03-05T20:22:01.722Z,23.60
2023-03-05T20:24:30.327Z,23.73
2023-03-05T20:27:00.140Z,27.53
2023-03-05T20:29:28.968Z,23.20
2023-03-05T20:31:57.844Z,24.50
2023-03-05T20:34:30.103Z,23.23
2023-03-05T20:37:00.028Z,25.47
2023-03-05T20:39:29.820Z,24.93
2023-03-05T20:41:58.140Z,21.13
2023-03-05T20:44:26.670Z,20.30
2023-03-05T20:47:42.462Z,19.43
2023-03-05T20:50:12.387Z,23.87
2023-03-05T20:52:41.259Z,23.03
2023-03-05T20:55:13.081Z,20.60
2023-03-05T20:57:42.839Z,22.53
2023-03-05T21:00:12.741Z,23.63
2023-03-05T21:02:41.296Z,26.40
2023-03-05T21:05:10.222Z,28.17
2023-03-05T21:07:38.478Z,27.87
2023-03-05T21:10:08.269Z,28.67
2023-03-05T21:12:38.156Z,25.10
2023-03-05T21:15:08.430Z,23.27
2023-03-05T21:17:36.897Z,19.50
2023-03-05T21:20:06.104Z,22.27
2023-03-05T21:22:35.292Z,20.83
2023-03-05T21:25:21.208Z,20.90
2023-03-05T21:27:55.284Z,20.13
2023-03-05T21:30:28.431Z,19.57
2023-03-05T21:32:58.125Z,19.57
2023-03-05T21:35:29.773Z,26.43
2023-03-05T21:37:58.268Z,24.37
2023-03-05T21:40:27.628Z,23.23
2023-03-05T21:42:57.606Z,23.77
2023-03-05T21:45:28.792Z,22.13
2023-03-05T21:47:59.113Z,25.73
2023-03-05T21:50:28.767Z,19.30
2023-03-05T21:52:57.229Z,18.23
2023-03-05T21:56:25.591Z,18.47
2023-03-05T21:58:55.517Z,18.83
2023-03-05T22:01:23.927Z,18.70
2023-03-05T22:03:52.366Z,15.83
2023-03-05T22:06:21.584Z,17.27
2023-03-05T22:08:49.962Z,15.37
2023-03-05T22:11:20.964Z,17.50
2023-03-05T22:13:49.501Z,15.67
2023-03-05T22:16:27.113Z,16.27
2023-03-05T22:18:56.101Z,16.13
2023-03-05T22:21:27.100Z,17.07
2023-03-05T22:23:57.164Z,14.80
2023-03-05T22:26:26.059Z,17.77
2023-03-05T22:28:54.520Z,16.80
2023-03-05T22:31:25.813Z,13.77
2023-03-05T22:33:54.926Z,15.63
2023-03-05T22:36:23.813Z,16.30
2023-03-05T22:38:52.987Z,15.97
2023-03-05T22:41:22.226Z,14.53
2023-03-05T22:43:52.451Z,17.03
2023-03-05T22:46:22.973Z,16.77
2023-03-05T22:48:53.784Z,16.67
2023-03-05T22:51:22.279Z,15.77
2023-03-05T22:53:50.657Z,15.43
2023-03-05T22:56:21.414Z,15.50
2023-03-05T22:58:50.237Z,15.27
2023-03-05T23:01:20.720Z,16.03
2023-03-05T23:04:37.818Z,16.23
2023-03-05T23:07:07.770Z,15.70
2023-03-05T23:09:36.053Z,15.10
2023-03-05T23:12:04.828Z,15.57
2023-03-05T23:14:33.137Z,16.87
2023-03-05T23:17:01.374Z,17.07
2023-03-05T23:19:29.748Z,15.63
2023-03-05T23:21:58.043Z,15.47
2023-03-05T23:24:27.849Z,14.43
2023-03-05T23:26:56.197Z,15.97
2023-03-05T23:30:19.853Z,17.70
2023-03-05T23:32:51.027Z,21.07
2023-03-05T23:35:22.357Z,14.53
2023-03-05T23:37:50.899Z,13.27
2023-03-05T23:40:23.514Z,15.33
2023-03-05T23:42:52.170Z,17.07
2023-03-05T23:45:22.277Z,16.90
2023-03-05T23:47:51.646Z,15.37
2023-03-05T23:50:21.330Z,15.47
2023-03-05T23:52:50.845Z,16.63
2023-03-05T23:55:23.148Z,15.83
2023-03-05T23:57:51.772Z,15.17
